createdAt,value
2023-03-06T00:03:09.764Z,513.00
2023-03-06T00:07:09.966Z,511.00
2023-03-06T00:11:10.715Z,510.00
2023-03-06T00:15:10.341Z,511.00
2023-03-06T00:19:10.545Z,510.00
2023-03-06T00:23:10.698Z,511.00
2023-03-06T00:27:10.853Z,508.00
2023-03-06T00:31:11.064Z,509.00
2023-03-06T00:35:11.218Z,509.00
2023-03-06T00:39:11.390Z,513.00
2023-03-06T00:43:11.530Z,514.00
2023-03-06T00:47:11.681Z,513.00
2023-03-06T00:51:13.966Z,510.00
2023-03-06T00:55:12.009Z,510.00
2023-03-06T00:59:12.221Z,516.00
2023-03-06T01:03:12.393Z,509.00
2023-03-06T01:07:12.608Z,512.00
2023-03-06T01:11:12.760Z,512.00
2023-03-06T01:15:12.976Z,508.00
2023-03-06T01:19:13.171Z,511.00
2023-03-06T01:23:13.303Z,507.00
2023-03-06T01:27:13.518Z,511.00
2023-03-06T01:31:13.690Z,514.00
2023-03-06T01:35:13.893Z,507.00
2023-03-06T01:39:14.095Z,507.00
2023-03-06T01:43:14.279Z,510.00
2023-03-06T01:47:14.486Z,507.00
2023-03-06T01:51:14.684Z,508.00
2023-03-06T01:55:14.878Z,509.00
2023-03-06T01:59:15.082Z,508.00
2023-03-06T02:03:15.264Z,514.00
2023-03-06T02:07:15.512Z,511.00
2023-03-06T02:11:15.741Z,516.00
2023-03-06T02:15:15.893Z,513.00
2023-03-06T02:19:16.096Z,512.00
2023-03-06T02:23:16.314Z,509.00
2023-03-06T02:27:16.519Z,508.00
2023-03-06T02:31:16.769Z,512.00
2023-03-06T02:35:16.917Z,514.00
2023-03-06T02:39:17.132Z,510.00
2023-03-06T02:43:17.338Z,512.00
2023-03-06T02:47:17.324Z,508.00
2023-03-06T02:51:17.281Z,514.00
2023-03-06T02:55:17.229Z,508.00
2023-03-06T02:59:17.207Z,509.00
2023-03-06T03:03:17.158Z,512.00
2023-03-06T03:07:17.119Z,515.00
2023-03-06T03:11:17.122Z,508.00
2023-03-06T03:15:17.061Z,512.00
2023-03-06T03:19:16.982Z,510.00
2023-03-06T03:23:17.014Z,510.00
2023-03-06T03:27:17.025Z,501.00
2023-03-06T03:31:17.033Z,507.00
2023-03-06T03:35:16.934Z,506.00
2023-03-06T03:39:16.881Z,500.00
2023-03-06T03:43:16.863Z,508.00
2023-03-06T03:47:16.844Z,510.00
2023-03-06T03:51:16.787Z,505.00
2023-03-06T03:55:16.754Z,513.00
2023-03-06T03:59:16.762Z,506.00
2023-03-06T04:03:16.886Z,506.00
2023-03-06T04:07:16.836Z,507.00
2023-03-06T04:11:16.812Z,506.00
2023-03-06T04:15:16.804Z,504.00
2023-03-06T04:19:16.750Z,506.00
2023-03-06T04:23:16.726Z,502.00
2023-03-06T04:27:16.658Z,504.00
2023-03-06T04:31:16.670Z,507.00
2023-03-06T04:35:16.604Z,510.00
2023-03-06T04:39:16.571Z,512.00
2023-03-06T04:43:16.683Z,509.00
2023-03-06T04:47:19.053Z,513.00
2023-03-06T04:51:16.638Z,509.00
2023-03-06T04:55:16.588Z,510.00
2023-03-06T04:59:16.544Z,507.00
2023-03-06T05:03:16.516Z,505.00
2023-03-06T05:07:16.474Z,507.00
2023-03-06T05:11:16.426Z,503.00
2023-03-06T05:15:16.404Z,504.00
2023-03-06T05:19:16.382Z,509.00
2023-03-06T05:23:16.345Z,505.00
2023-03-06T05:27:17.004Z,503.00
2023-03-06T05:31:16.283Z,503.00
2023-03-06T05:35:16.207Z,501.00
2023-03-06T05:39:16.200Z,500.00
2023-03-06T05:43:16.141Z,509.00
2023-03-06T05:47:16.122Z,512.00
2023-03-06T05:51:16.096Z,519.00
2023-03-06T05:55:16.056Z,518.00
2023-03-06T05:59:16.045Z,528.00
2023-03-06T06:03:15.989Z,528.00
2023-03-06T06:07:15.920Z,531.00
2023-03-06T06:11:15.931Z,546.00
2023-03-06T06:15:15.845Z,542.00
2023-03-06T06:19:15.826Z,550.00
2023-03-06T06:23:15.808Z,551.00
2023-03-06T06:27:15.766Z,547.00
2023-03-06T06:31:15.765Z,554.00
2023-03-06T06:35:15.794Z,556.00
2023-03-06T06:39:15.957Z,559.00
2023-03-06T06:43:16.342Z,577.00
2023-03-06T06:47:22.843Z,598.00
2023-03-06T06:51:17.339Z,610.00
2023-03-06T06:55:16.247Z,656.00
2023-03-06T06:59:17.577Z,1125.00
2023-03-06T07:03:16.334Z,1354.00
2023-03-06T07:07:16.149Z,1413.00
2023-03-06T07:11:16.333Z,1417.00
2023-03-06T07:15:16.073Z,1422.00
2023-03-06T07:19:16.070Z,1440.00
2023-03-06T07:23:15.979Z,1467.00
2023-03-06T07:27:15.980Z,1457.00
2023-03-06T07:31:16.391Z,1469.00
2023-03-06T07:35:20.212Z,1448.00
2023-03-06T07:39:15.883Z,1450.00
2023-03-06T07:43:19.359Z,1454.00
2023-03-06T07:47:15.841Z,1464.00
2023-03-06T07:51:15.866Z,1460.00
2023-03-06T07:55:15.874Z,1447.00
2023-03-06T07:59:15.715Z,1430.00
2023-03-06T08:03:15.748Z,1411.00
2023-03-06T08:07:15.638Z,1383.00
2023-03-06T08:11:15.592Z,1378.00
2023-03-06T08:15:15.805Z,1348.00
2023-03-06T08:19:15.986Z,1358.00
2023-03-06T08:23:16.359Z,1336.00
2023-03-06T08:27:16.412Z,1317.00
2023-03-06T08:31:16.683Z,1308.00
2023-03-06T08:35:16.821Z,1288.00
2023-03-06T08:39:17.389Z,1279.00
2023-03-06T08:43:17.159Z,1272.00
2023-03-06T08:47:17.384Z,1288.00
2023-03-06T08:51:17.871Z,1286.00
2023-03-06T08:55:17.872Z,1317.00
2023-03-06T08:59:17.416Z,1335.00
2023-03-06T09:03:17.881Z,1354.00
2023-03-06T09:07:17.493Z,1550.00
2023-03-06T09:11:17.676Z,1486.00
2023-03-06T09:15:17.602Z,1488.00
2023-03-06T09:19:17.612Z,1476.00
2023-03-06T09:23:17.541Z,1477.00
2023-03-06T09:27:17.528Z,1495.00
2023-03-06T09:31:17.660Z,1510.00
2023-03-06T09:35:17.461Z,1559.00
2023-03-06T09:39:17.896Z,1544.00
2023-03-06T09:43:17.378Z,1570.00
2023-03-06T09:47:17.390Z,2003.00
2023-03-06T09:51:17.297Z,2330.00
2023-03-06T09:55:17.401Z,2368.00
2023-03-06T09:59:17.382Z,2353.00
2023-03-06T10:03:17.304Z,2315.00
2023-03-06T10:07:17.401Z,2262.00
2023-03-06T10:11:17.146Z,2191.00
2023-03-06T10:15:17.135Z,2147.00
2023-03-06T10:19:17.068Z,2094.00
2023-03-06T10:23:17.393Z,2039.00
2023-03-06T10:27:17.059Z,2017.00
2023-03-06T10:31:17.516Z,1966.00
2023-03-06T10:35:17.490Z,1909.00
2023-03-06T10:39:16.916Z,1854.00
2023-03-06T10:43:16.845Z,1832.00
2023-03-06T10:47:16.937Z,1509.00
2023-03-06T10:51:18.626Z,1211.00
2023-03-06T10:55:16.909Z,1431.00
2023-03-06T10:59:16.736Z,1329.00
2023-03-06T11:03:16.935Z,1333.00
2023-03-06T11:07:16.869Z,1321.00
2023-03-06T11:11:22.443Z,1320.00
2023-03-06T11:15:17.815Z,1327.00
2023-03-06T11:19:16.812Z,1349.00
2023-03-06T11:23:17.532Z,1330.00
2023-03-06T11:27:17.425Z,1341.00
2023-03-06T11:31:17.370Z,1369.00
2023-03-06T11:35:17.907Z,1368.00
2023-03-06T11:39:17.936Z,1371.00
2023-03-06T11:43:17.924Z,1386.00
2023-03-06T11:47:17.900Z,1388.00
2023-03-06T11:51:18.411Z,1402.00
2023-03-06T11:55:18.070Z,1397.00
2023-03-06T11:59:18.150Z,1422.00
2023-03-06T12:03:18.168Z,1410.00
2023-03-06T12:07:18.239Z,1414.00
2023-03-06T12:11:18.521Z,1416.00
2023-03-06T12:15:18.187Z,1415.00
2023-03-06T12:19:18.174Z,1430.00
2023-03-06T12:23:18.955Z,1421.00
2023-03-06T12:27:18.441Z,1440.00
2023-03-06T12:31:18.580Z,1431.00
2023-03-06T12:35:18.475Z,1434.00
2023-03-06T12:39:18.157Z,1401.00
2023-03-06T12:43:18.149Z,1323.00
2023-03-06T12:47:18.466Z,1299.00
2023-03-06T12:51:18.265Z,1250.00
2023-03-06T12:55:21.189Z,1214.00
2023-03-06T12:59:18.231Z,1189.00
2023-03-06T13:03:18.465Z,1145.00
2023-03-06T13:07:18.156Z,1121.00
2023-03-06T13:11:18.081Z,1103.00
2023-03-06T13:15:18.099Z,1064.00
2023-03-06T13:19:18.038Z,1046.00
2023-03-06T13:23:18.453Z,1021.00
2023-03-06T13:27:18.138Z,990.00
2023-03-06T13:31:27.040Z,960.00
2023-03-06T13:35:19.211Z,945.00
2023-03-06T13:39:18.186Z,924.00
2023-03-06T13:43:18.151Z,907.00
2023-03-06T13:47:18.186Z,881.00
2023-03-06T13:51:18.325Z,851.00
2023-03-06T13:55:18.444Z,842.00
2023-03-06T13:59:18.570Z,822.00
2023-03-06T14:03:18.721Z,794.00
2023-03-06T14:07:18.875Z,771.00
2023-03-06T14:11:18.978Z,759.00
2023-03-06T14:15:19.096Z,756.00
2023-03-06T14:19:19.254Z,719.00
2023-03-06T14:23:19.456Z,697.00
2023-03-06T14:27:19.494Z,685.00
2023-03-06T14:31:19.677Z,672.00
2023-03-06T14:35:19.840Z,655.00
2023-03-06T14:39:19.935Z,654.00
2023-03-06T14:43:20.116Z,643.00
2023-03-06T14:47:20.224Z,638.00
2023-03-06T14:51:20.364Z,635.00
2023-03-06T14:55:20.518Z,633.00
2023-03-06T14:59:20.701Z,628.00
2023-03-06T15:03:20.988Z,622.00
2023-03-06T15:07:21.152Z,620.00
2023-03-06T15:11:21.191Z,613.00
2023-03-06T15:15:21.513Z,612.00
2023-03-06T15:19:21.493Z,608.00
2023-03-06T15:23:22.018Z,602.00
2023-03-06T15:27:21.807Z,594.00
2023-03-06T15:31:22.099Z,592.00
2023-03-06T15:35:22.206Z,588.00
2023-03-06T15:39:22.403Z,583.00
2023-03-06T15:43:22.571Z,584.00
2023-03-06T15:47:22.816Z,575.00
2023-03-06T15:51:23.012Z,577.00
2023-03-06T15:55:23.238Z,573.00
2023-03-06T15:59:23.162Z,565.00
2023-03-06T16:03:23.175Z,561.00
2023-03-06T16:07:23.085Z,560.00
2023-03-06T16:11:24.569Z,550.00
2023-03-06T16:15:23.044Z,550.00
2023-03-06T16:19:26.524Z,551.00
2023-03-06T16:23:22.950Z,545.00
2023-03-06T16:27:22.940Z,543.00
2023-03-06T16:31:22.912Z,530.00
2023-03-06T16:35:22.919Z,527.00
2023-03-06T16:39:22.835Z,525.00
2023-03-06T16:43:22.897Z,520.00
2023-03-06T16:47:22.765Z,524.00
2023-03-06T16:51:22.721Z,520.00
2023-03-06T16:55:22.672Z,513.00
2023-03-06T16:59:22.654Z,506.00
2023-03-06T17:03:23.045Z,504.00
2023-03-06T17:07:22.528Z,505.00
2023-03-06T17:11:22.541Z,511.00
2023-03-06T17:15:22.528Z,506.00
2023-03-06T17:19:22.434Z,506.00
2023-03-06T17:23:22.416Z,509.00
2023-03-06T17:27:22.405Z,507.00
2023-03-06T17:31:22.425Z,508.00
2023-03-06T17:35:22.478Z,506.00
2023-03-06T17:39:22.591Z,508.00
2023-03-06T17:43:22.738Z,508.00
2023-03-06T17:47:22.820Z,508.00
2023-03-06T17:51:23.002Z,503.00
2023-03-06T17:55:23.087Z,508.00
2023-03-06T17:59:23.272Z,502.00
2023-03-06T18:03:23.383Z,502.00
2023-03-06T18:07:23.569Z,510.00
2023-03-06T18:11:23.732Z,505.00
2023-03-06T18:15:23.939Z,505.00
2023-03-06T18:19:24.114Z,503.00
2023-03-06T18:23:24.307Z,505.00
2023-03-06T18:27:24.440Z,506.00
2023-03-06T18:31:24.670Z,506.00
2023-03-06T18:35:24.904Z,501.00
2023-03-06T18:39:25.074Z,502.00
2023-03-06T18:43:25.256Z,503.00
2023-03-06T18:47:25.454Z,502.00
2023-03-06T18:51:25.626Z,501.00
2023-03-06T18:55:25.890Z,505.00
2023-03-06T18:59:26.079Z,505.00
2023-03-06T19:03:26.277Z,505.00
2023-03-06T19:07:26.513Z,503.00
2023-03-06T19:11:26.699Z,500.00
2023-03-06T19:15:26.943Z,500.00
2023-03-06T19:19:26.907Z,500.00
2023-03-06T19:23:26.841Z,512.00
2023-03-06T19:27:26.822Z,503.00
2023-03-06T19:31:26.949Z,500.00
2023-03-06T19:35:26.752Z,508.00
2023-03-06T19:39:26.702Z,507.00
2023-03-06T19:43:26.692Z,503.00
2023-03-06T19:47:26.635Z,503.00
2023-03-06T19:51:26.602Z,504.00
2023-03-06T19:55:26.682Z,504.00
2023-03-06T19:59:26.601Z,504.00
2023-03-06T20:03:26.559Z,507.00
2023-03-06T20:07:26.540Z,509.00
2023-03-06T20:11:26.497Z,505.00
2023-03-06T20:15:26.521Z,504.00
2023-03-06T20:19:26.442Z,503.00
2023-03-06T20:23:26.412Z,506.00
2023-03-06T20:27:26.332Z,503.00
2023-03-06T20:31:26.375Z,508.00
2023-03-06T20:35:26.279Z,500.00
2023-03-06T20:39:26.237Z,507.00
2023-03-06T20:43:26.333Z,508.00
2023-03-06T20:47:26.511Z,505.00
2023-03-06T20:51:26.701Z,505.00
2023-03-06T20:55:26.912Z,504.00
2023-03-06T20:59:27.038Z,510.00
2023-03-06T21:03:27.200Z,511.00
2023-03-06T21:07:27.354Z,505.00
2023-03-06T21:11:27.462Z,504.00
2023-03-06T21:15:27.563Z,504.00
2023-03-06T21:19:27.522Z,509.00
2023-03-06T21:23:27.489Z,507.00
2023-03-06T21:27:27.481Z,509.00
2023-03-06T21:31:27.530Z,505.00
2023-03-06T21:35:27.518Z,503.00
2023-03-06T21:39:27.441Z,505.00
2023-03-06T21:43:27.426Z,504.00
2023-03-06T21:47:27.377Z,504.00
2023-03-06T21:51:27.381Z,511.00
2023-03-06T21:55:27.419Z,508.00
2023-03-06T21:59:27.381Z,504.00
2023-03-06T22:03:27.402Z,503.00
2023-03-06T22:07:27.404Z,506.00
2023-03-06T22:11:27.394Z,507.00
2023-03-06T22:15:27.416Z,509.00
2023-03-06T22:19:27.421Z,500.00
2023-03-06T22:23:27.430Z,506.00
2023-03-06T22:27:27.443Z,506.00
2023-03-06T22:31:27.496Z,502.00
2023-03-06T22:35:27.440Z,504.00
2023-03-06T22:39:27.483Z,503.00
2023-03-06T22:43:27.491Z,500.00
2023-03-06T22:47:27.507Z,505.00
2023-03-06T22:51:27.521Z,504.00
2023-03-06T22:55:27.563Z,506.00
2023-03-06T22:59:27.600Z,507.00
2023-03-06T23:03:27.639Z,510.00
2023-03-06T23:07:27.659Z,506.00
2023-03-06T23:11:27.737Z,506.00
2023-03-06T23:15:27.802Z,504.00
2023-03-06T23:19:27.788Z,502.00
2023-03-06T23:23:27.853Z,506.00
2023-03-06T23:27:27.884Z,500.00
2023-03-06T23:31:27.945Z,511.00
2023-03-06T23:35:28.031Z,508.00
2023-03-06T23:39:28.010Z,505.00
2023-03-06T23:43:28.050Z,506.00
2023-03-06T23:47:28.104Z,503.00
2023-03-06T23:51:28.157Z,508.00
2023-03-06T23:55:28.226Z,509.00
2023-03-06T23:59:28.231Z,503.00
